sensor_id;sensor_type;location;lat;lon;timestamp;temperature;humidity
14735;DHT22;7458;49.002;8.472;2023-02-04T00:01:05;8.60;99.90
14735;DHT22;7458;49.002;8.472;2023-02-04T00:03:31;8.70;99.90
14735;DHT22;7458;49.002;8.472;2023-02-04T00:05:57;8.60;99.90
14735;DHT22;7458;49.002;8.472;2023-02-04T00:08:23;8.60;99.90
14735;DHT22;7458;49.002;8.472;2023-02-04T00:10:49;8.70;99.90
14735;DHT22;7458;49.002;8.472;2023-02-04T00:13:15;8.70;99.90
14735;DHT22;7458;49.002;8.472;2023-02-04T00:15:40;8.70;99.90
14735;DHT22;7458;49.002;8.472;2023-02-04T00:18:06;8.70;99.90
14735;DHT22;7458;49.002;8.472;2023-02-04T00:20:32;8.70;99.90
14735;DHT22;7458;49.002;8.472;2023-02-04T00:22:58;8.70;99.90
14735;DHT22;7458;49.002;8.472;2023-02-04T00:25:24;8.80;99.90
14735;DHT22;7458;49.002;8.472;2023-02-04T00:27:50;8.80;99.90
14735;DHT22;7458;49.002;8.472;2023-02-04T00:30:15;8.80;99.90
14735;DHT22;7458;49.002;8.472;2023-02-04T00:32:41;8.80;99.90
14735;DHT22;7458;49.002;8.472;2023-02-04T00:35:07;8.70;99.90
14735;DHT22;7458;49.002;8.472;2023-02-04T00:37:34;8.70;99.90
14735;DHT22;7458;49.002;8.472;2023-02-04T00:40:00;8.60;99.90
14735;DHT22;7458;49.002;8.472;2023-02-04T00:42:25;8.60;99.90
14735;DHT22;7458;49.002;8.472;2023-02-04T00:44:56;8.60;99.90
14735;DHT22;7458;49.002;8.472;2023-02-04T00:47:25;8.50;99.90
14735;DHT22;7458;49.002;8.472;2023-02-04T00:49:53;8.40;99.90
14735;DHT22;7458;49.002;8.472;2023-02-04T00:52:21;8.50;99.90
14735;DHT22;7458;49.002;8.472;2023-02-04T00:54:47;8.40;99.90
14735;DHT22;7458;49.002;8.472;2023-02-04T00:57:13;8.50;99.90
14735;DHT22;7458;49.002;8.472;2023-02-04T00:59:38;8.50;99.90
14735;DHT22;7458;49.002;8.472;2023-02-04T01:02:04;8.40;99.90
14735;DHT22;7458;49.002;8.472;2023-02-04T01:04:30;8.40;99.90
14735;DHT22;7458;49.002;8.472;2023-02-04T01:06:55;8.40;99.90
14735;DHT22;7458;49.002;8.472;2023-02-04T01:09:21;8.40;99.90
14735;DHT22;7458;49.002;8.472;2023-02-04T01:11:47;8.50;99.90
14735;DHT22;7458;49.002;8.472;2023-02-04T01:14:13;8.40;99.90
14735;DHT22;7458;49.002;8.472;2023-02-04T01:16:39;8.50;99.90
14735;DHT22;7458;49.002;8.472;2023-02-04T01:19:04;8.40;99.90
14735;DHT22;7458;49.002;8.472;2023-02-04T01:21:30;8.40;99.90
14735;DHT22;7458;49.002;8.472;2023-02-04T01:23:56;8.50;99.90
14735;DHT22;7458;49.002;8.472;2023-02-04T01:26:22;8.50;99.90
14735;DHT22;7458;49.002;8.472;2023-02-04T01:28:48;8.40;99.90
14735;DHT22;7458;49.002;8.472;2023-02-04T01:31:17;8.40;99.90
14735;DHT22;7458;49.002;8.472;2023-02-04T01:33:43;8.40;99.90
14735;DHT22;7458;49.002;8.472;2023-02-04T01:36:09;8.50;99.90
14735;DHT22;7458;49.002;8.472;2023-02-04T01:38:35;8.50;99.90
14735;DHT22;7458;49.002;8.472;2023-02-04T01:41:01;8.50;99.90
14735;DHT22;7458;49.002;8.472;2023-02-04T01:43:28;8.60;99.90
14735;DHT22;7458;49.002;8.472;2023-02-04T01:45:55;8.50;99.90
14735;DHT22;7458;49.002;8.472;2023-02-04T01:48:22;8.50;99.90
14735;DHT22;7458;49.002;8.472;2023-02-04T01:50:54;8.50;99.90
14735;DHT22;7458;49.002;8.472;2023-02-04T01:53:27;8.30;99.90
14735;DHT22;7458;49.002;8.472;2023-02-04T01:55:53;8.40;99.90
14735;DHT22;7458;49.002;8.472;2023-02-04T01:58:19;8.40;99.90
14735;DHT22;7458;49.002;8.472;2023-02-04T02:00:44;8.40;99.90
14735;DHT22;7458;49.002;8.472;2023-02-04T02:03:10;8.40;99.90
14735;DHT22;7458;49.002;8.472;2023-02-04T02:05:43;8.40;99.90
14735;DHT22;7458;49.002;8.472;2023-02-04T02:08:12;8.40;99.90
14735;DHT22;7458;49.002;8.472;2023-02-04T02:10:41;8.50;99.90
14735;DHT22;7458;49.002;8.472;2023-02-04T02:13:11;8.50;99.90
14735;DHT22;7458;49.002;8.472;2023-02-04T02:15:40;8.50;99.90
14735;DHT22;7458;49.002;8.472;2023-02-04T02:18:06;8.50;99.90
14735;DHT22;7458;49.002;8.472;2023-02-04T02:20:32;8.50;99.90
14735;DHT22;7458;49.002;8.472;2023-02-04T02:25:38;8.50;99.90
14735;DHT22;7458;49.002;8.472;2023-02-04T02:28:12;8.50;99.90
14735;DHT22;7458;49.002;8.472;2023-02-04T02:30:43;8.50;99.90
14735;DHT22;7458;49.002;8.472;2023-02-04T02:33:16;8.50;99.90
14735;DHT22;7458;49.002;8.472;2023-02-04T02:35:45;8.60;99.90
14735;DHT22;7458;49.002;8.472;2023-02-04T02:38:13;8.60;99.90
14735;DHT22;7458;49.002;8.472;2023-02-04T02:40:43;8.60;99.90
14735;DHT22;7458;49.002;8.472;2023-02-04T02:43:15;8.60;99.90
14735;DHT22;7458;49.002;8.472;2023-02-04T02:45:43;8.60;99.90
14735;DHT22;7458;49.002;8.472;2023-02-04T02:48:10;8.60;99.90
14735;DHT22;7458;49.002;8.472;2023-02-04T02:50:36;8.60;99.90
14735;DHT22;7458;49.002;8.472;2023-02-04T02:53:03;8.60;99.90
14735;DHT22;7458;49.002;8.472;2023-02-04T02:55:34;8.60;99.90
14735;DHT22;7458;49.002;8.472;2023-02-04T02:58:00;8.60;99.90
14735;DHT22;7458;49.002;8.472;2023-02-04T03:00:27;8.70;99.90
14735;DHT22;7458;49.002;8.472;2023-02-04T03:05:31;8.70;99.90
14735;DHT22;7458;49.002;8.472;2023-02-04T03:08:00;8.70;99.90
14735;DHT22;7458;49.002;8.472;2023-02-04T03:10:26;8.70;99.90
14735;DHT22;7458;49.002;8.472;2023-02-04T03:12:52;8.60;99.90
14735;DHT22;7458;49.002;8.472;2023-02-04T03:15:18;8.60;99.90
14735;DHT22;7458;49.002;8.472;2023-02-04T03:17:45;8.60;99.90
14735;DHT22;7458;49.002;8.472;2023-02-04T03:20:13;8.70;99.90
14735;DHT22;7458;49.002;8.472;2023-02-04T03:22:41;8.70;99.90
14735;DHT22;7458;49.002;8.472;2023-02-04T03:25:07;8.70;99.90
14735;DHT22;7458;49.002;8.472;2023-02-04T03:27:33;8.70;99.90
14735;DHT22;7458;49.002;8.472;2023-02-04T03:29:59;8.70;99.90
14735;DHT22;7458;49.002;8.472;2023-02-04T03:32:25;8.70;99.90
14735;DHT22;7458;49.002;8.472;2023-02-04T03:34:50;8.70;99.90
14735;DHT22;7458;49.002;8.472;2023-02-04T03:37:16;8.70;99.90
14735;DHT22;7458;49.002;8.472;2023-02-04T03:39:42;8.70;99.90
14735;DHT22;7458;49.002;8.472;2023-02-04T03:42:07;8.70;99.90
14735;DHT22;7458;49.002;8.472;2023-02-04T03:44:33;8.70;99.90
14735;DHT22;7458;49.002;8.472;2023-02-04T03:46:59;8.60;99.90
14735;DHT22;7458;49.002;8.472;2023-02-04T03:49:25;8.60;99.90
14735;DHT22;7458;49.002;8.472;2023-02-04T03:51:52;8.70;99.90
14735;DHT22;7458;49.002;8.472;2023-02-04T03:54:18;8.70;99.90
14735;DHT22;7458;49.002;8.472;2023-02-04T03:56:44;8.70;99.90
14735;DHT22;7458;49.002;8.472;2023-02-04T03:59:09;8.70;99.90
14735;DHT22;7458;49.002;8.472;2023-02-04T04:01:35;8.60;99.90
14735;DHT22;7458;49.002;8.472;2023-02-04T04:04:01;8.60;99.90
14735;DHT22;7458;49.002;8.472;2023-02-04T04:06:26;8.60;99.90
14735;DHT22;7458;49.002;8.472;2023-02-04T04:08:52;8.60;99.90
14735;DHT22;7458;49.002;8.472;2023-02-04T04:11:18;8.50;99.90
14735;DHT22;7458;49.002;8.472;2023-02-04T04:13:43;8.50;99.90
14735;DHT22;7458;49.002;8.472;2023-02-04T04:16:09;8.50;99.90
14735;DHT22;7458;49.002;8.472;2023-02-04T04:18:35;9.30;99.90
14735;DHT22;7458;49.002;8.472;2023-02-04T04:21:01;8.50;99.90
14735;DHT22;7458;49.002;8.472;2023-02-04T04:23:27;8.40;99.90
14735;DHT22;7458;49.002;8.472;2023-02-04T04:25:53;8.40;99.90
14735;DHT22;7458;49.002;8.472;2023-02-04T04:28:18;8.40;99.90
14735;DHT22;7458;49.002;8.472;2023-02-04T04:30:44;8.40;99.90
14735;DHT22;7458;49.002;8.472;2023-02-04T04:33:10;8.40;99.90
14735;DHT22;7458;49.002;8.472;2023-02-04T04:35:36;8.40;99.90
14735;DHT22;7458;49.002;8.472;2023-02-04T04:38:02;8.40;99.90
14735;DHT22;7458;49.002;8.472;2023-02-04T04:40:29;8.40;99.90
14735;DHT22;7458;49.002;8.472;2023-02-04T04:42:55;8.30;99.90
14735;DHT22;7458;49.002;8.472;2023-02-04T04:45:21;8.30;99.90
14735;DHT22;7458;49.002;8.472;2023-02-04T04:47:47;8.30;99.90
14735;DHT22;7458;49.002;8.472;2023-02-04T04:50:13;8.30;99.90
14735;DHT22;7458;49.002;8.472;2023-02-04T04:52:38;8.30;99.90
14735;DHT22;7458;49.002;8.472;2023-02-04T04:55:04;8.30;99.90
14735;DHT22;7458;49.002;8.472;2023-02-04T04:57:31;8.30;99.90
14735;DHT22;7458;49.002;8.472;2023-02-04T04:59:57;8.20;99.90
14735;DHT22;7458;49.002;8.472;2023-02-04T05:02:22;8.00;99.90
14735;DHT22;7458;49.002;8.472;2023-02-04T05:04:48;8.00;99.90
14735;DHT22;7458;49.002;8.472;2023-02-04T05:07:14;8.00;99.90
14735;DHT22;7458;49.002;8.472;2023-02-04T05:09:39;8.00;99.90
14735;DHT22;7458;49.002;8.472;2023-02-04T05:12:05;8.20;99.90
14735;DHT22;7458;49.002;8.472;2023-02-04T05:14:31;8.00;99.90
14735;DHT22;7458;49.002;8.472;2023-02-04T05:16:57;8.00;99.90
14735;DHT22;7458;49.002;8.472;2023-02-04T05:19:23;8.00;99.90
14735;DHT22;7458;49.002;8.472;2023-02-04T05:21:49;8.00;99.90
14735;DHT22;7458;49.002;8.472;2023-02-04T05:24:14;8.00;99.90
14735;DHT22;7458;49.002;8.472;2023-02-04T05:26:40;8.10;99.90
14735;DHT22;7458;49.002;8.472;2023-02-04T05:29:06;8.10;99.90
14735;DHT22;7458;49.002;8.472;2023-02-04T05:31:32;8.20;99.90
14735;DHT22;7458;49.002;8.472;2023-02-04T05:33:58;8.20;99.90
14735;DHT22;7458;49.002;8.472;2023-02-04T05:36:24;8.20;99.90
14735;DHT22;7458;49.002;8.472;2023-02-04T05:38:49;8.20;99.90
14735;DHT22;7458;49.002;8.472;2023-02-04T05:41:15;8.20;99.90
14735;DHT22;7458;49.002;8.472;2023-02-04T05:43:41;8.20;99.90
14735;DHT22;7458;49.002;8.472;2023-02-04T05:46:07;8.20;99.90
14735;DHT22;7458;49.002;8.472;2023-02-04T05:48:33;8.20;99.90
14735;DHT22;7458;49.002;8.472;2023-02-04T05:50:59;8.20;99.90
14735;DHT22;7458;49.002;8.472;2023-02-04T05:53:24;8.20;99.90
14735;DHT22;7458;49.002;8.472;2023-02-04T05:55:50;8.20;99.90
14735;DHT22;7458;49.002;8.472;2023-02-04T05:58:16;8.20;99.90
14735;DHT22;7458;49.002;8.472;2023-02-04T06:00:41;8.20;99.90
14735;DHT22;7458;49.002;8.472;2023-02-04T06:03:07;8.20;99.90
14735;DHT22;7458;49.002;8.472;2023-02-04T06:05:33;8.20;99.90
14735;DHT22;7458;49.002;8.472;2023-02-04T06:07:59;8.20;99.90
14735;DHT22;7458;49.002;8.472;2023-02-04T06:10:25;8.20;99.90
14735;DHT22;7458;49.002;8.472;2023-02-04T06:12:50;8.20;99.90
14735;DHT22;7458;49.002;8.472;2023-02-04T06:15:16;8.20;99.90
14735;DHT22;7458;49.002;8.472;2023-02-04T06:17:42;8.20;99.90
14735;DHT22;7458;49.002;8.472;2023-02-04T06:20:09;8.20;99.90
14735;DHT22;7458;49.002;8.472;2023-02-04T06:22:37;8.30;99.90
14735;DHT22;7458;49.002;8.472;2023-02-04T06:25:03;8.20;99.90
14735;DHT22;7458;49.002;8.472;2023-02-04T06:27:29;8.20;99.90
14735;DHT22;7458;49.002;8.472;2023-02-04T06:29:55;8.20;99.90
14735;DHT22;7458;49.002;8.472;2023-02-04T06:32:22;8.20;99.90
14735;DHT22;7458;49.002;8.472;2023-02-04T06:34:48;8.20;99.90
14735;DHT22;7458;49.002;8.472;2023-02-04T06:37:14;8.20;99.90
14735;DHT22;7458;49.002;8.472;2023-02-04T06:39:42;8.20;99.90
14735;DHT22;7458;49.002;8.472;2023-02-04T06:42:08;8.20;99.90
14735;DHT22;7458;49.002;8.472;2023-02-04T06:44:34;8.20;99.90
14735;DHT22;7458;49.002;8.472;2023-02-04T06:46:59;8.20;99.90
14735;DHT22;7458;49.002;8.472;2023-02-04T06:49:25;8.20;99.90
14735;DHT22;7458;49.002;8.472;2023-02-04T06:51:51;8.20;99.90
14735;DHT22;7458;49.002;8.472;2023-02-04T06:54:17;8.20;99.90
14735;DHT22;7458;49.002;8.472;2023-02-04T06:56:43;8.20;99.90
14735;DHT22;7458;49.002;8.472;2023-02-04T06:59:09;8.10;99.90
14735;DHT22;7458;49.002;8.472;2023-02-04T07:01:35;8.10;99.90
14735;DHT22;7458;49.002;8.472;2023-02-04T07:04:01;8.10;99.90
14735;DHT22;7458;49.002;8.472;2023-02-04T07:06:27;8.10;99.90
14735;DHT22;7458;49.002;8.472;2023-02-04T07:08:52;8.10;99.90
14735;DHT22;7458;49.002;8.472;2023-02-04T07:11:18;8.10;99.90
14735;DHT22;7458;49.002;8.472;2023-02-04T07:13:44;8.10;99.90
14735;DHT22;7458;49.002;8.472;2023-02-04T07:16:10;8.10;99.90
14735;DHT22;7458;49.002;8.472;2023-02-04T07:18:36;8.10;99.90
14735;DHT22;7458;49.002;8.472;2023-02-04T07:21:01;8.10;99.90
14735;DHT22;7458;49.002;8.472;2023-02-04T07:23:27;8.10;99.90
14735;DHT22;7458;49.002;8.472;2023-02-04T07:25:53;8.10;99.90
14735;DHT22;7458;49.002;8.472;2023-02-04T07:28:20;8.10;99.90
14735;DHT22;7458;49.002;8.472;2023-02-04T07:30:46;8.10;99.90
14735;DHT22;7458;49.002;8.472;2023-02-04T07:33:12;8.10;99.90
14735;DHT22;7458;49.002;8.472;2023-02-04T07:35:38;8.10;99.90
14735;DHT22;7458;49.002;8.472;2023-02-04T07:38:04;8.00;99.90
14735;DHT22;7458;49.002;8.472;2023-02-04T07:40:30;8.10;99.90
14735;DHT22;7458;49.002;8.472;2023-02-04T07:42:56;8.10;99.90
14735;DHT22;7458;49.002;8.472;2023-02-04T07:45:22;8.20;99.90
14735;DHT22;7458;49.002;8.472;2023-02-04T07:47:48;8.20;99.90
14735;DHT22;7458;49.002;8.472;2023-02-04T07:50:14;8.20;99.90
14735;DHT22;7458;49.002;8.472;2023-02-04T07:52:40;8.30;99.90
14735;DHT22;7458;49.002;8.472;2023-02-04T07:55:07;8.30;99.90
14735;DHT22;7458;49.002;8.472;2023-02-04T07:57:33;8.30;99.90
14735;DHT22;7458;49.002;8.472;2023-02-04T07:59:59;8.30;99.90
14735;DHT22;7458;49.002;8.472;2023-02-04T08:02:25;8.30;99.90
14735;DHT22;7458;49.002;8.472;2023-02-04T08:04:52;8.30;99.90
14735;DHT22;7458;49.002;8.472;2023-02-04T08:07:18;8.30;99.90
14735;DHT22;7458;49.002;8.472;2023-02-04T08:09:43;8.30;99.90
14735;DHT22;7458;49.002;8.472;2023-02-04T08:12:09;8.40;99.90
14735;DHT22;7458;49.002;8.472;2023-02-04T08:14:35;8.30;99.90
14735;DHT22;7458;49.002;8.472;2023-02-04T08:17:01;8.30;99.90
14735;DHT22;7458;49.002;8.472;2023-02-04T08:19:27;8.20;99.90
14735;DHT22;7458;49.002;8.472;2023-02-04T08:21:53;8.40;99.90
14735;DHT22;7458;49.002;8.472;2023-02-04T08:24:19;8.50;99.90
14735;DHT22;7458;49.002;8.472;2023-02-04T08:26:45;8.50;99.90
14735;DHT22;7458;49.002;8.472;2023-02-04T08:29:13;8.60;99.90
14735;DHT22;7458;49.002;8.472;2023-02-04T08:31:39;8.60;99.90
14735;DHT22;7458;49.002;8.472;2023-02-04T08:34:05;8.70;99.90
14735;DHT22;7458;49.002;8.472;2023-02-04T08:36:31;8.70;99.90
14735;DHT22;7458;49.002;8.472;2023-02-04T08:38:57;8.70;99.90
14735;DHT22;7458;49.002;8.472;2023-02-04T08:41:26;8.80;99.90
14735;DHT22;7458;49.002;8.472;2023-02-04T08:43:52;8.80;99.90
14735;DHT22;7458;49.002;8.472;2023-02-04T08:46:18;8.80;99.90
14735;DHT22;7458;49.002;8.472;2023-02-04T08:48:43;8.90;99.90
14735;DHT22;7458;49.002;8.472;2023-02-04T08:51:09;9.00;99.90
14735;DHT22;7458;49.002;8.472;2023-02-04T08:53:35;9.00;99.90
14735;DHT22;7458;49.002;8.472;2023-02-04T08:56:02;9.00;99.90
14735;DHT22;7458;49.002;8.472;2023-02-04T08:58:27;9.00;99.90
14735;DHT22;7458;49.002;8.472;2023-02-04T09:00:53;9.10;99.90
14735;DHT22;7458;49.002;8.472;2023-02-04T09:03:19;9.10;99.90
14735;DHT22;7458;49.002;8.472;2023-02-04T09:05:44;9.20;99.90
14735;DHT22;7458;49.002;8.472;2023-02-04T09:08:11;9.20;99.90
14735;DHT22;7458;49.002;8.472;2023-02-04T09:10:37;9.30;99.90
14735;DHT22;7458;49.002;8.472;2023-02-04T09:13:03;9.40;99.90
14735;DHT22;7458;49.002;8.472;2023-02-04T09:15:29;9.40;99.90
14735;DHT22;7458;49.002;8.472;2023-02-04T09:17:54;9.40;99.90
14735;DHT22;7458;49.002;8.472;2023-02-04T09:20:29;9.50;99.90
14735;DHT22;7458;49.002;8.472;2023-02-04T09:22:55;9.60;99.90
14735;DHT22;7458;49.002;8.472;2023-02-04T09:25:20;9.60;99.90
14735;DHT22;7458;49.002;8.472;2023-02-04T09:27:46;9.40;99.90
14735;DHT22;7458;49.002;8.472;2023-02-04T09:30:12;9.50;99.90
14735;DHT22;7458;49.002;8.472;2023-02-04T09:32:38;9.60;99.90
14735;DHT22;7458;49.002;8.472;2023-02-04T09:35:04;9.60;99.90
14735;DHT22;7458;49.002;8.472;2023-02-04T09:37:30;9.80;99.90
14735;DHT22;7458;49.002;8.472;2023-02-04T09:39:55;10.10;99.90
14735;DHT22;7458;49.002;8.472;2023-02-04T09:42:22;10.00;99.90
14735;DHT22;7458;49.002;8.472;2023-02-04T09:44:50;10.20;99.90
14735;DHT22;7458;49.002;8.472;2023-02-04T09:47:18;10.30;99.90
14735;DHT22;7458;49.002;8.472;2023-02-04T09:49:48;10.30;99.90
14735;DHT22;7458;49.002;8.472;2023-02-04T09:52:15;10.10;99.90
14735;DHT22;7458;49.002;8.472;2023-02-04T09:54:44;9.80;99.90
14735;DHT22;7458;49.002;8.472;2023-02-04T09:57:16;9.80;99.90
14735;DHT22;7458;49.002;8.472;2023-02-04T09:59:44;10.00;99.90
14735;DHT22;7458;49.002;8.472;2023-02-04T10:02:21;9.90;99.90
14735;DHT22;7458;49.002;8.472;2023-02-04T10:04:50;9.90;99.90
14735;DHT22;7458;49.002;8.472;2023-02-04T10:07:22;9.90;99.90
14735;DHT22;7458;49.002;8.472;2023-02-04T10:09:51;9.70;99.90
14735;DHT22;7458;49.002;8.472;2023-02-04T10:12:19;9.70;99.90
14735;DHT22;7458;49.002;8.472;2023-02-04T10:14:46;9.70;99.90
14735;DHT22;7458;49.002;8.472;2023-02-04T10:17:16;9.70;99.90
14735;DHT22;7458;49.002;8.472;2023-02-04T10:19:45;9.60;99.90
14735;DHT22;7458;49.002;8.472;2023-02-04T10:22:16;9.50;99.90
14735;DHT22;7458;49.002;8.472;2023-02-04T10:24:44;9.50;99.90
14735;DHT22;7458;49.002;8.472;2023-02-04T10:27:11;9.50;99.90
14735;DHT22;7458;49.002;8.472;2023-02-04T10:29:41;9.50;99.90
14735;DHT22;7458;49.002;8.472;2023-02-04T10:32:31;9.40;99.90
14735;DHT22;7458;49.002;8.472;2023-02-04T10:34:59;9.50;99.90
14735;DHT22;7458;49.002;8.472;2023-02-04T10:37:27;9.60;99.90
14735;DHT22;7458;49.002;8.472;2023-02-04T10:39:54;9.40;99.90
14735;DHT22;7458;49.002;8.472;2023-02-04T10:42:28;9.50;99.90
14735;DHT22;7458;49.002;8.472;2023-02-04T10:44:55;9.50;99.90
14735;DHT22;7458;49.002;8.472;2023-02-04T10:47:24;9.70;99.90
14735;DHT22;7458;49.002;8.472;2023-02-04T10:52:39;10.00;99.90
14735;DHT22;7458;49.002;8.472;2023-02-04T10:55:12;10.20;99.90
14735;DHT22;7458;49.002;8.472;2023-02-04T10:57:41;10.40;99.90
14735;DHT22;7458;49.002;8.472;2023-02-04T11:00:17;10.50;99.90
14735;DHT22;7458;49.002;8.472;2023-02-04T11:05:36;10.80;99.90
14735;DHT22;7458;49.002;8.472;2023-02-04T11:11:03;10.60;99.90
14735;DHT22;7458;49.002;8.472;2023-02-04T11:13:41;10.40;99.90
14735;DHT22;7458;49.002;8.472;2023-02-04T11:16:30;10.30;99.90
14735;DHT22;7458;49.002;8.472;2023-02-04T11:24:24;10.30;99.90
14735;DHT22;7458;49.002;8.472;2023-02-04T11:27:03;10.40;99.90
14735;DHT22;7458;49.002;8.472;2023-02-04T11:29:33;10.40;99.90
14735;DHT22;7458;49.002;8.472;2023-02-04T11:32:32;10.50;99.90
14735;DHT22;7458;49.002;8.472;2023-02-04T11:35:23;10.80;99.90
14735;DHT22;7458;49.002;8.472;2023-02-04T11:37:53;10.80;99.90
14735;DHT22;7458;49.002;8.472;2023-02-04T11:40:26;10.90;99.90
14735;DHT22;7458;49.002;8.472;2023-02-04T11:43:14;11.00;99.90
14735;DHT22;7458;49.002;8.472;2023-02-04T11:45:40;11.00;99.90
14735;DHT22;7458;49.002;8.472;2023-02-04T11:48:16;11.30;99.90
14735;DHT22;7458;49.002;8.472;2023-02-04T11:50:55;11.60;99.90
14735;DHT22;7458;49.002;8.472;2023-02-04T11:53:30;11.80;99.90
14735;DHT22;7458;49.002;8.472;2023-02-04T11:55:57;11.70;99.90
14735;DHT22;7458;49.002;8.472;2023-02-04T11:58:23;12.00;99.90
14735;DHT22;7458;49.002;8.472;2023-02-04T12:00:53;12.20;99.90
14735;DHT22;7458;49.002;8.472;2023-02-04T12:03:25;11.80;99.90
14735;DHT22;7458;49.002;8.472;2023-02-04T12:05:55;11.70;99.90
14735;DHT22;7458;49.002;8.472;2023-02-04T12:13:26;12.50;99.90
14735;DHT22;7458;49.002;8.472;2023-02-04T12:16:05;12.60;99.90
14735;DHT22;7458;49.002;8.472;2023-02-04T12:18:33;12.90;99.90
14735;DHT22;7458;49.002;8.472;2023-02-04T12:21:00;12.70;99.90
14735;DHT22;7458;49.002;8.472;2023-02-04T12:23:28;12.60;99.90
14735;DHT22;7458;49.002;8.472;2023-02-04T12:25:55;12.30;99.90
14735;DHT22;7458;49.002;8.472;2023-02-04T12:28:22;12.00;99.90
14735;DHT22;7458;49.002;8.472;2023-02-04T12:30:47;11.80;99.90
14735;DHT22;7458;49.002;8.472;2023-02-04T12:33:14;11.70;99.90
14735;DHT22;7458;49.002;8.472;2023-02-04T12:35:40;11.70;99.90
14735;DHT22;7458;49.002;8.472;2023-02-04T12:38:06;11.60;99.90
14735;DHT22;7458;49.002;8.472;2023-02-04T12:40:32;11.70;99.90
14735;DHT22;7458;49.002;8.472;2023-02-04T12:42:57;11.80;99.90
14735;DHT22;7458;49.002;8.472;2023-02-04T12:45:23;11.90;99.90
14735;DHT22;7458;49.002;8.472;2023-02-04T12:47:49;12.00;99.90
14735;DHT22;7458;49.002;8.472;2023-02-04T12:50:17;12.00;99.90
14735;DHT22;7458;49.002;8.472;2023-02-04T12:52:52;12.00;99.90
14735;DHT22;7458;49.002;8.472;2023-02-04T12:55:20;12.10;99.90
14735;DHT22;7458;49.002;8.472;2023-02-04T12:57:47;12.00;99.90
14735;DHT22;7458;49.002;8.472;2023-02-04T13:00:14;11.90;99.90
14735;DHT22;7458;49.002;8.472;2023-02-04T13:02:42;11.90;99.90
14735;DHT22;7458;49.002;8.472;2023-02-04T13:05:09;11.80;99.90
14735;DHT22;7458;49.002;8.472;2023-02-04T13:07:36;11.80;99.90
14735;DHT22;7458;49.002;8.472;2023-02-04T13:10:03;11.80;99.90
14735;DHT22;7458;49.002;8.472;2023-02-04T13:12:29;11.70;99.90
14735;DHT22;7458;49.002;8.472;2023-02-04T13:14:55;11.70;99.90
14735;DHT22;7458;49.002;8.472;2023-02-04T13:17:20;11.70;99.90
14735;DHT22;7458;49.002;8.472;2023-02-04T13:19:46;11.70;99.90
14735;DHT22;7458;49.002;8.472;2023-02-04T13:22:12;11.60;99.90
14735;DHT22;7458;49.002;8.472;2023-02-04T13:24:37;11.60;99.90
14735;DHT22;7458;49.002;8.472;2023-02-04T13:27:03;11.40;99.90
14735;DHT22;7458;49.002;8.472;2023-02-04T13:29:29;11.40;99.90
14735;DHT22;7458;49.002;8.472;2023-02-04T13:31:55;11.30;99.90
14735;DHT22;7458;49.002;8.472;2023-02-04T13:34:20;11.30;99.90
14735;DHT22;7458;49.002;8.472;2023-02-04T13:36:46;11.30;99.90
14735;DHT22;7458;49.002;8.472;2023-02-04T13:39:12;11.30;99.90
14735;DHT22;7458;49.002;8.472;2023-02-04T13:41:38;11.30;99.90
14735;DHT22;7458;49.002;8.472;2023-02-04T13:44:05;11.30;99.90
14735;DHT22;7458;49.002;8.472;2023-02-04T13:46:31;11.30;99.90
14735;DHT22;7458;49.002;8.472;2023-02-04T13:48:58;11.30;99.90
14735;DHT22;7458;49.002;8.472;2023-02-04T13:51:24;11.40;99.90
14735;DHT22;7458;49.002;8.472;2023-02-04T13:53:50;11.50;99.90
14735;DHT22;7458;49.002;8.472;2023-02-04T13:56:16;11.60;99.90
14735;DHT22;7458;49.002;8.472;2023-02-04T13:58:41;11.80;99.90
14735;DHT22;7458;49.002;8.472;2023-02-04T14:01:12;11.80;99.90
14735;DHT22;7458;49.002;8.472;2023-02-04T14:03:39;11.80;99.90
14735;DHT22;7458;49.002;8.472;2023-02-04T14:06:07;11.80;99.90
14735;DHT22;7458;49.002;8.472;2023-02-04T14:08:33;11.80;99.90
14735;DHT22;7458;49.002;8.472;2023-02-04T14:11:00;11.60;99.90
14735;DHT22;7458;49.002;8.472;2023-02-04T14:13:26;11.50;99.90
14735;DHT22;7458;49.002;8.472;2023-02-04T14:15:51;11.40;99.90
14735;DHT22;7458;49.002;8.472;2023-02-04T14:18:17;11.30;99.90
14735;DHT22;7458;49.002;8.472;2023-02-04T14:20:43;11.30;99.90
14735;DHT22;7458;49.002;8.472;2023-02-04T14:23:09;11.20;99.40
14735;DHT22;7458;49.002;8.472;2023-02-04T14:25:37;11.00;98.20
14735;DHT22;7458;49.002;8.472;2023-02-04T14:28:04;10.80;97.40
14735;DHT22;7458;49.002;8.472;2023-02-04T14:30:30;10.70;98.00
14735;DHT22;7458;49.002;8.472;2023-02-04T14:32:57;10.70;99.70
14735;DHT22;7458;49.002;8.472;2023-02-04T14:35:24;10.80;99.90
14735;DHT22;7458;49.002;8.472;2023-02-04T14:37:51;10.90;99.90
14735;DHT22;7458;49.002;8.472;2023-02-04T14:40:18;10.90;99.90
14735;DHT22;7458;49.002;8.472;2023-02-04T14:42:45;11.00;99.90
14735;DHT22;7458;49.002;8.472;2023-02-04T14:45:12;11.20;99.90
14735;DHT22;7458;49.002;8.472;2023-02-04T14:47:39;11.30;99.90
14735;DHT22;7458;49.002;8.472;2023-02-04T14:50:07;11.40;99.90
14735;DHT22;7458;49.002;8.472;2023-02-04T14:52:35;11.40;99.90
14735;DHT22;7458;49.002;8.472;2023-02-04T14:55:01;11.50;99.90
14735;DHT22;7458;49.002;8.472;2023-02-04T14:57:26;11.50;99.40
14735;DHT22;7458;49.002;8.472;2023-02-04T14:59:52;11.50;99.60
14735;DHT22;7458;49.002;8.472;2023-02-04T15:02:18;11.40;98.70
14735;DHT22;7458;49.002;8.472;2023-02-04T15:04:44;11.30;98.60
14735;DHT22;7458;49.002;8.472;2023-02-04T15:07:11;11.30;98.80
14735;DHT22;7458;49.002;8.472;2023-02-04T15:09:37;11.30;99.90
14735;DHT22;7458;49.002;8.472;2023-02-04T15:12:03;11.40;99.90
14735;DHT22;7458;49.002;8.472;2023-02-04T15:14:29;11.40;99.90
14735;DHT22;7458;49.002;8.472;2023-02-04T15:16:55;11.40;99.90
14735;DHT22;7458;49.002;8.472;2023-02-04T15:19:21;11.20;99.90
14735;DHT22;7458;49.002;8.472;2023-02-04T15:21:48;11.20;99.90
14735;DHT22;7458;49.002;8.472;2023-02-04T15:24:14;11.20;99.90
14735;DHT22;7458;49.002;8.472;2023-02-04T15:26:39;11.20;99.90
14735;DHT22;7458;49.002;8.472;2023-02-04T15:29:05;11.20;99.90
14735;DHT22;7458;49.002;8.472;2023-02-04T15:31:31;11.20;99.90
14735;DHT22;7458;49.002;8.472;2023-02-04T15:33:57;11.30;99.90
14735;DHT22;7458;49.002;8.472;2023-02-04T15:36:23;11.10;99.90
14735;DHT22;7458;49.002;8.472;2023-02-04T15:38:49;11.00;99.90
14735;DHT22;7458;49.002;8.472;2023-02-04T15:41:14;10.90;99.90
14735;DHT22;7458;49.002;8.472;2023-02-04T15:43:40;10.70;99.90
14735;DHT22;7458;49.002;8.472;2023-02-04T15:46:06;10.60;99.90
14735;DHT22;7458;49.002;8.472;2023-02-04T15:48:32;10.50;99.90
14735;DHT22;7458;49.002;8.472;2023-02-04T15:50:57;10.40;99.90
14735;DHT22;7458;49.002;8.472;2023-02-04T15:53:23;10.40;99.90
14735;DHT22;7458;49.002;8.472;2023-02-04T15:55:49;10.30;99.90
14735;DHT22;7458;49.002;8.472;2023-02-04T15:58:15;10.20;99.90
14735;DHT22;7458;49.002;8.472;2023-02-04T16:00:41;10.20;99.90
14735;DHT22;7458;49.002;8.472;2023-02-04T16:03:08;10.10;99.90
14735;DHT22;7458;49.002;8.472;2023-02-04T16:05:35;10.10;99.90
14735;DHT22;7458;49.002;8.472;2023-02-04T16:08:01;10.00;99.90
14735;DHT22;7458;49.002;8.472;2023-02-04T16:10:27;10.00;99.90
14735;DHT22;7458;49.002;8.472;2023-02-04T16:12:53;10.00;99.90
14735;DHT22;7458;49.002;8.472;2023-02-04T16:15:22;10.00;99.90
14735;DHT22;7458;49.002;8.472;2023-02-04T16:17:48;9.90;99.90
14735;DHT22;7458;49.002;8.472;2023-02-04T16:20:16;9.90;99.90